Orbital elements of FENGYUN 1C DEB
| Launched | 9 May 1999 |
| Flight ended | – |
| Launch site | Taiyuan Space Center, PRC |
| Owner | People's Republic of China |
| NORAD ID | 32458 |
| Date fetched |
Epoch osculation |
Inc. [°] |
Ecc. | RA asc node [hr] |
Arg Peri. [°] |
Mean anom [°] |
Mean motion [rev/day] |
Abs. mag |
| Date fetched |
Epoch osculation |
Inc. [°] |
Ecc. | RA asc node [hr] |
Arg Peri. [°] |
Mean anom [°] |
Mean motion [rev/day] |
Abs. mag |
| 2026 May 09 17:57 | 2026 May 04 08:22:32 | 99.0288 | 0.00366 | 10.8581 | 296.1415 | 63.6025 | 14.64578 | – |
| 2026 May 08 17:57 | 2026 May 04 08:22:32 | 99.0288 | 0.00366 | 10.8581 | 296.1415 | 63.6025 | 14.64578 | – |
| 2026 May 07 17:58 | 2026 May 04 08:22:32 | 99.0288 | 0.00366 | 10.8581 | 296.1415 | 63.6025 | 14.64578 | – |
| 2026 May 06 17:57 | 2026 May 04 08:22:32 | 99.0288 | 0.00366 | 10.8581 | 296.1415 | 63.6025 | 14.64578 | – |
| 2026 May 05 17:57 | 2026 May 04 08:22:32 | 99.0288 | 0.00366 | 10.8581 | 296.1415 | 63.6025 | 14.64578 | – |
| 2026 May 04 17:57 | 2026 Apr 29 20:09:25 | 99.0294 | 0.00366 | 10.5284 | 310.8041 | 63.6025 | 14.64578 | – |
| 2026 May 03 17:57 | 2026 Apr 29 20:09:25 | 99.0294 | 0.00366 | 10.5284 | 310.8041 | 63.6025 | 14.64578 | – |
| 2026 May 02 17:57 | 2026 Apr 29 20:09:25 | 99.0294 | 0.00366 | 10.5284 | 310.8041 | 63.6025 | 14.64578 | – |
| 2026 May 01 17:56 | 2026 Apr 29 20:09:25 | 99.0294 | 0.00366 | 10.5284 | 310.8041 | 63.6025 | 14.64578 | – |
| 2026 Apr 30 17:56 | 2026 Apr 29 20:09:25 | 99.0294 | 0.00366 | 10.5284 | 310.8041 | 63.6025 | 14.64578 | – |
| 2026 Apr 29 17:57 | 2026 Apr 20 06:35:21 | 99.0298 | 0.00371 | 9.8292 | 341.2912 | 63.6025 | 14.64578 | – |
| 2026 Apr 28 17:56 | 2026 Apr 20 06:35:21 | 99.0298 | 0.00371 | 9.8292 | 341.2912 | 63.6025 | 14.64578 | – |
| 2026 Apr 27 17:58 | 2026 Apr 20 06:35:21 | 99.0298 | 0.00371 | 9.8292 | 341.2912 | 63.6025 | 14.64578 | – |
| 2026 Apr 26 17:58 | 2026 Apr 20 06:35:21 | 99.0298 | 0.00371 | 9.8292 | 341.2912 | 63.6025 | 14.64578 | – |
| 2026 Apr 25 17:58 | 2026 Apr 20 06:35:21 | 99.0298 | 0.00371 | 9.8292 | 341.2912 | 63.6025 | 14.64578 | – |
| 2026 Apr 24 17:59 | 2026 Apr 20 06:35:21 | 99.0298 | 0.00371 | 9.8292 | 341.2912 | 63.6025 | 14.64578 | – |
| 2026 Apr 23 17:57 | 2026 Apr 15 08:31:13 | 99.0312 | 0.00376 | 9.4696 | 356.9390 | 63.6025 | 14.64578 | – |
| 2026 Apr 22 17:57 | 2026 Apr 15 08:31:13 | 99.0312 | 0.00376 | 9.4696 | 356.9390 | 63.6025 | 14.64578 | – |
| 2026 Apr 21 17:57 | 2026 Apr 15 08:31:13 | 99.0312 | 0.00376 | 9.4696 | 356.9390 | 63.6025 | 14.64578 | – |
| 2026 Apr 20 17:57 | 2026 Apr 15 08:31:13 | 99.0312 | 0.00376 | 9.4696 | 356.9390 | 63.6025 | 14.64578 | – |
| 2026 Apr 19 17:58 | 2026 Apr 15 08:31:13 | 99.0312 | 0.00376 | 9.4696 | 356.9390 | 63.6025 | 14.64578 | – |
| 2026 Apr 18 17:56 | 2026 Apr 12 06:43:33 | 99.0324 | 0.00378 | 9.2449 | 6.6172 | 63.6025 | 14.64578 | – |
| 2026 Apr 16 17:57 | 2026 Apr 12 06:43:33 | 99.0324 | 0.00378 | 9.2449 | 6.6172 | 63.6025 | 14.64578 | – |
| 2026 Apr 14 17:57 | 2026 Apr 12 06:43:33 | 99.0324 | 0.00378 | 9.2449 | 6.6172 | 63.6025 | 14.64578 | – |
| 2026 Apr 13 17:57 | 2026 Apr 12 06:43:33 | 99.0324 | 0.00378 | 9.2449 | 6.6172 | 63.6025 | 14.64578 | – |
| 2026 Apr 12 17:57 | 2026 Apr 07 08:39:07 | 99.0321 | 0.00384 | 8.8853 | 21.8759 | 63.6025 | 14.64578 | – |